createdAt,value
2023-05-16T00:01:18.235Z,-23544.84
2023-05-16T00:03:21.089Z,-23544.53
2023-05-16T00:05:24.002Z,-23542.31
2023-05-16T00:07:26.705Z,-23543.25
2023-05-16T00:09:29.321Z,-23543.56
2023-05-16T00:11:31.964Z,-23544.53
2023-05-16T00:13:36.409Z,-23544.06
2023-05-16T00:15:39.797Z,-23544.38
2023-05-16T00:17:43.737Z,-23547.06
2023-05-16T00:19:47.420Z,-23548.97
2023-05-16T00:21:50.168Z,-23546.59
2023-05-16T00:23:53.093Z,-23548.31
2023-05-16T00:25:56.117Z,-23547.69
2023-05-16T00:27:59.010Z,-23546.59
2023-05-16T00:30:03.729Z,-23545.31
2023-05-16T00:32:08.743Z,-23546.75
2023-05-16T00:34:11.689Z,-23544.84
2023-05-16T00:36:14.374Z,-23542.94
2023-05-16T00:38:17.133Z,-23545.00
2023-05-16T00:40:19.797Z,-23541.03
2023-05-16T00:42:22.624Z,-23540.09
2023-05-16T00:44:25.320Z,-23541.03
2023-05-16T00:46:29.511Z,-23540.41
2023-05-16T00:48:32.623Z,-23534.56
2023-05-16T00:50:35.599Z,-23536.78
2023-05-16T00:52:38.601Z,-23533.91
2023-05-16T00:54:41.276Z,-23537.25
2023-05-16T00:56:43.994Z,-23535.50
2023-05-16T00:58:46.820Z,-23537.56
2023-05-16T01:00:49.923Z,-23539.63
2023-05-16T01:02:54.158Z,-23536.94
2023-05-16T01:04:57.301Z,-23535.97
2023-05-16T01:07:00.044Z,-23538.84
2023-05-16T01:09:02.839Z,-23540.25
2023-05-16T01:11:17.250Z,-23537.88
2023-05-16T01:13:29.099Z,-23538.19
2023-05-16T01:15:40.747Z,-23535.97
2023-05-16T01:17:58.037Z,-23535.03
2023-05-16T01:20:11.276Z,-23534.38
2023-05-16T01:22:21.624Z,-23536.94
2023-05-16T01:24:34.224Z,-23536.59
2023-05-16T01:26:38.108Z,-23536.13
2023-05-16T01:28:42.173Z,-23532.81
2023-05-16T01:30:45.803Z,-23535.81
2023-05-16T01:32:48.443Z,-23537.56
2023-05-16T01:34:52.084Z,-23536.59
2023-05-16T01:37:02.442Z,-23534.38
2023-05-16T01:39:15.908Z,-23532.50
2023-05-16T01:41:24.041Z,-23531.38
2023-05-16T01:43:38.183Z,-23531.53
2023-05-16T01:45:46.834Z,-23535.81
2023-05-16T01:48:01.850Z,-23531.69
2023-05-16T01:50:11.173Z,-23533.75
2023-05-16T01:52:20.602Z,-23527.44
2023-05-16T01:54:27.047Z,-23527.28
2023-05-16T01:56:31.011Z,-23528.06
2023-05-16T01:58:36.965Z,-23529.47
2023-05-16T02:00:40.684Z,-23523.47
2023-05-16T02:02:43.476Z,-23523.63
2023-05-16T02:04:46.145Z,-23526.63
2023-05-16T02:06:49.262Z,-23520.16
2023-05-16T02:08:52.020Z,-23523.31
2023-05-16T02:10:54.715Z,-23518.88
2023-05-16T02:12:57.790Z,-23521.09
2023-05-16T02:15:01.804Z,-23520.31
2023-05-16T02:17:04.578Z,-23520.31
2023-05-16T02:19:07.377Z,-23521.41
2023-05-16T02:21:10.111Z,-23516.97
2023-05-16T02:23:12.770Z,-23521.56
2023-05-16T02:25:16.362Z,-23522.84
2023-05-16T02:27:19.145Z,-23523.94
2023-05-16T02:29:21.832Z,-23525.06
2023-05-16T02:31:30.339Z,-23523.31
2023-05-16T02:33:33.158Z,-23521.72
2023-05-16T02:35:35.850Z,-23525.38
2023-05-16T02:37:38.558Z,-23517.94
2023-05-16T02:39:41.224Z,-23516.66
2023-05-16T02:41:43.855Z,-23520.16
2023-05-16T02:43:47.211Z,-23521.09
2023-05-16T02:45:50.286Z,-23518.56
2023-05-16T02:47:54.307Z,-23522.03
2023-05-16T02:49:57.250Z,-23523.31
2023-05-16T02:51:59.891Z,-23523.00
2023-05-16T02:54:02.716Z,-23524.56
2023-05-16T02:56:06.951Z,-23516.97
2023-05-16T02:58:09.639Z,-23521.09
2023-05-16T03:00:15.129Z,-23518.72
2023-05-16T03:02:18.844Z,-23521.09
2023-05-16T03:04:23.652Z,-23518.25
2023-05-16T03:06:26.346Z,-23519.81
2023-05-16T03:08:29.162Z,-23519.66
2023-05-16T03:10:31.853Z,-23519.66
2023-05-16T03:12:34.597Z,-23518.25
2023-05-16T03:14:37.227Z,-23522.69
2023-05-16T03:16:41.651Z,-23522.84
2023-05-16T03:18:44.511Z,-23519.50
2023-05-16T03:20:48.528Z,-23521.09
2023-05-16T03:22:51.154Z,-23520.47
2023-05-16T03:24:53.849Z,-23519.66
2023-05-16T03:26:56.650Z,-23515.41
2023-05-16T03:28:59.358Z,-23512.22
2023-05-16T03:31:02.154Z,-23507.78
2023-05-16T03:33:05.156Z,-23511.44
2023-05-16T03:35:08.359Z,-23507.47
2023-05-16T03:37:14.936Z,-23507.94
2023-05-16T03:39:17.786Z,-23512.53
2023-05-16T03:41:21.022Z,-23507.63
2023-05-16T03:43:23.733Z,-23504.47
2023-05-16T03:45:26.680Z,-23502.72
2023-05-16T03:47:31.852Z,-23507.78
2023-05-16T03:49:34.506Z,-23506.22
2023-05-16T03:51:37.133Z,-23502.09
2023-05-16T03:53:41.422Z,-23505.91
2023-05-16T03:55:45.099Z,-23503.03
2023-05-16T03:57:50.006Z,-23504.94
2023-05-16T03:59:52.714Z,-23507.78
2023-05-16T04:01:55.621Z,-23504.63
2023-05-16T04:03:58.232Z,-23502.09
2023-05-16T04:06:01.201Z,-23501.47
2023-05-16T04:08:03.930Z,-23509.38
2023-05-16T04:10:08.807Z,-23505.91
2023-05-16T04:12:11.473Z,-23505.25
2023-05-16T04:14:14.320Z,-23504.31
2023-05-16T04:16:17.142Z,-23506.22
2023-05-16T04:18:19.980Z,-23505.72
2023-05-16T04:20:23.056Z,-23509.22
2023-05-16T04:22:25.959Z,-23506.69
2023-05-16T04:24:29.039Z,-23505.56
2023-05-16T04:26:33.025Z,-23514.44
2023-05-16T04:28:35.943Z,-23515.72
2023-05-16T04:30:38.845Z,-23513.81
2023-05-16T04:32:41.670Z,-23514.44
2023-05-16T04:34:46.668Z,-23507.31
2023-05-16T04:36:49.385Z,-23509.22
2023-05-16T04:38:55.317Z,-23509.84
2023-05-16T04:40:58.491Z,-23513.81
2023-05-16T04:43:02.500Z,-23511.28
2023-05-16T04:45:06.659Z,-23511.59
2023-05-16T04:47:09.391Z,-23511.91
2023-05-16T04:49:12.900Z,-23508.44
2023-05-16T04:51:15.585Z,-23513.81
2023-05-16T04:53:18.183Z,-23511.75
2023-05-16T04:55:20.850Z,-23516.97
2023-05-16T04:57:23.642Z,-23522.19
2023-05-16T04:59:27.663Z,-23516.50
2023-05-16T05:01:30.341Z,-23519.34
2023-05-16T05:03:33.216Z,-23523.94
2023-05-16T05:05:35.978Z,-23519.50
2023-05-16T05:07:38.648Z,-23526.78
2023-05-16T05:09:43.753Z,-23522.84
2023-05-16T05:11:46.427Z,-23518.56
2023-05-16T05:13:50.268Z,-23517.28
2023-05-16T05:15:56.420Z,-23516.34
2023-05-16T05:17:59.318Z,-23521.88
2023-05-16T05:20:03.323Z,-23519.50
2023-05-16T05:22:06.440Z,-23518.25
2023-05-16T05:24:09.142Z,-23515.41
2023-05-16T05:26:12.004Z,-23526.16
2023-05-16T05:28:14.631Z,-23529.16
2023-05-16T05:30:17.304Z,-23523.78
2023-05-16T05:32:21.274Z,-23526.78
2023-05-16T05:34:23.938Z,-23526.78
2023-05-16T05:36:26.525Z,-23530.59
2023-05-16T05:38:29.188Z,-23524.25
2023-05-16T05:40:32.056Z,-23524.25
2023-05-16T05:42:35.237Z,-23534.88
2023-05-16T05:44:38.601Z,-23538.19
2023-05-16T05:46:41.660Z,-23532.66
2023-05-16T05:48:45.952Z,-23529.66
2023-05-16T05:50:48.683Z,-23526.78
2023-05-16T05:52:51.420Z,-23520.63
2023-05-16T05:54:54.094Z,-23521.56
2023-05-16T05:56:57.030Z,-23528.06
2023-05-16T05:58:59.708Z,-23529.47
2023-05-16T06:01:02.466Z,-23530.91
2023-05-16T06:03:05.714Z,-23528.38
2023-05-16T06:05:10.574Z,-23522.84
2023-05-16T06:07:15.260Z,-23522.03
2023-05-16T06:09:17.948Z,-23526.94
2023-05-16T06:11:21.448Z,-23532.34
2023-05-16T06:13:24.106Z,-23524.91
2023-05-16T06:15:27.427Z,-23526.47
2023-05-16T06:17:30.356Z,-23529.00
2023-05-16T06:19:32.981Z,-23529.97
2023-05-16T06:21:37.266Z,-23532.19
2023-05-16T06:23:39.827Z,-23531.84
2023-05-16T06:25:42.495Z,-23540.88
2023-05-16T06:27:45.097Z,-23539.16
2023-05-16T06:29:47.714Z,-23537.56
2023-05-16T06:31:50.441Z,-23546.91
2023-05-16T06:33:53.138Z,-23538.50
2023-05-16T06:35:55.806Z,-23543.25
2023-05-16T06:37:59.847Z,-23547.06
2023-05-16T06:40:02.530Z,-23540.88
2023-05-16T06:42:06.023Z,-23538.34
2023-05-16T06:44:08.714Z,-23545.00
2023-05-16T06:46:11.434Z,-23542.63
2023-05-16T06:48:15.567Z,-23548.97
2023-05-16T06:50:18.284Z,-23549.28
2023-05-16T06:52:21.147Z,-23544.38
2023-05-16T06:54:25.169Z,-23551.97
2023-05-16T06:56:28.699Z,-23547.69
2023-05-16T06:58:31.554Z,-23550.22
2023-05-16T07:00:34.232Z,-23553.38
2023-05-16T07:02:36.963Z,-23550.38
2023-05-16T07:04:39.660Z,-23546.25
2023-05-16T07:06:42.487Z,-23563.19
2023-05-16T07:08:45.190Z,-23562.56
2023-05-16T07:10:49.251Z,-23552.75
2023-05-16T07:12:51.929Z,-23563.50
2023-05-16T07:14:54.607Z,-23560.03
2023-05-16T07:16:57.448Z,-23567.94
2023-05-16T07:19:00.267Z,-23557.66
2023-05-16T07:21:02.976Z,-23569.50
2023-05-16T07:23:05.767Z,-23579.47
2023-05-16T07:25:12.616Z,-23582.97
2023-05-16T07:27:16.707Z,-23596.53
2023-05-16T07:29:19.493Z,-23588.16
2023-05-16T07:31:22.243Z,-23595.13
2023-05-16T07:33:25.313Z,-23575.22
2023-05-16T07:35:28.144Z,-23571.88
2023-05-16T07:37:31.268Z,-23577.72
2023-05-16T07:39:33.978Z,-23593.22
2023-05-16T07:41:36.621Z,-23582.31
2023-05-16T07:43:40.644Z,-23557.03
2023-05-16T07:45:43.538Z,-23557.19
2023-05-16T07:47:46.299Z,-23544.53
2023-05-16T07:49:49.186Z,-23545.63
2023-05-16T07:51:51.978Z,-23550.53
2023-05-16T07:53:54.701Z,-23561.44
2023-05-16T07:55:57.514Z,-23572.34
2023-05-16T07:58:00.187Z,-23549.13
2023-05-16T08:00:05.101Z,-23568.56
2023-05-16T08:02:08.010Z,-23561.59
2023-05-16T08:04:10.806Z,-23571.88
2023-05-16T08:06:13.564Z,-23579.16
2023-05-16T08:08:16.368Z,-23578.69
2023-05-16T08:10:19.165Z,-23582.97
2023-05-16T08:12:21.938Z,-23593.69
2023-05-16T08:14:24.744Z,-23562.72
2023-05-16T08:16:28.884Z,-23562.56
2023-05-16T08:18:31.668Z,-23564.63
2023-05-16T08:20:34.347Z,-23569.66
2023-05-16T08:22:37.078Z,-23566.97
2023-05-16T08:24:39.794Z,-23565.41
2023-05-16T08:26:42.508Z,-23567.78
2023-05-16T08:28:45.270Z,-23563.19
2023-05-16T08:30:48.204Z,-23541.84
2023-05-16T08:32:52.363Z,-23557.19
2023-05-16T08:34:55.185Z,-23550.84
2023-05-16T08:36:57.797Z,-23544.22
2023-05-16T08:39:00.554Z,-23551.81
2023-05-16T08:41:03.327Z,-23566.34
2023-05-16T08:43:06.391Z,-23555.75
2023-05-16T08:45:09.894Z,-23552.13
2023-05-16T08:47:14.775Z,-23558.44
2023-05-16T08:49:19.797Z,-23549.91
2023-05-16T08:51:22.674Z,-23542.00
2023-05-16T08:53:32.778Z,-23545.16
2023-05-16T08:55:36.453Z,-23542.00
2023-05-16T08:57:39.972Z,-23546.75
2023-05-16T08:59:43.161Z,-23547.84
2023-05-16T09:01:46.137Z,-23545.47
2023-05-16T09:03:49.898Z,-23550.69
2023-05-16T09:05:54.026Z,-23549.59
2023-05-16T09:07:56.756Z,-23537.88
2023-05-16T09:09:59.515Z,-23539.16
2023-05-16T09:12:02.271Z,-23534.38
2023-05-16T09:14:05.938Z,-23531.38
2023-05-16T09:16:13.370Z,-23533.44
2023-05-16T09:18:16.087Z,-23534.38
2023-05-16T09:20:22.505Z,-23529.66
2023-05-16T09:22:26.540Z,-23534.72
2023-05-16T09:24:29.461Z,-23529.16
2023-05-16T09:26:33.501Z,-23538.19
2023-05-16T09:28:39.025Z,-23535.66
2023-05-16T09:30:42.586Z,-23527.75
2023-05-16T09:32:46.038Z,-23529.00
2023-05-16T09:34:51.481Z,-23532.81
2023-05-16T09:36:55.953Z,-23533.91
2023-05-16T09:39:00.226Z,-23532.19
2023-05-16T09:41:03.543Z,-23531.38
2023-05-16T09:43:07.835Z,-23524.25
2023-05-16T09:45:14.088Z,-23534.88
2023-05-16T09:47:17.531Z,-23528.69
2023-05-16T09:49:20.532Z,-23534.72
2023-05-16T09:51:24.290Z,-23530.59
2023-05-16T09:53:28.588Z,-23533.59
2023-05-16T09:55:34.039Z,-23532.50
2023-05-16T09:57:39.512Z,-23541.84
2023-05-16T09:59:43.027Z,-23542.63
2023-05-16T10:01:46.235Z,-23541.03
2023-05-16T10:03:51.897Z,-23546.44
2023-05-16T10:05:55.970Z,-23551.47
2023-05-16T10:07:59.425Z,-23544.84
2023-05-16T10:10:05.315Z,-23541.03
2023-05-16T10:12:14.202Z,-23546.09
2023-05-16T10:14:19.024Z,-23536.59
2023-05-16T10:16:24.358Z,-23539.16
2023-05-16T10:18:32.358Z,-23543.25
2023-05-16T10:20:36.023Z,-23545.16
2023-05-16T10:22:44.002Z,-23543.88
2023-05-16T10:24:51.714Z,-23545.78
2023-05-16T10:26:54.477Z,-23552.44
2023-05-16T10:28:58.613Z,-23547.69
2023-05-16T10:31:02.870Z,-23547.06
2023-05-16T10:33:06.021Z,-23544.84
2023-05-16T10:35:10.045Z,-23548.63
2023-05-16T10:37:12.923Z,-23555.28
2023-05-16T10:39:16.315Z,-23563.50
2023-05-16T10:41:22.047Z,-23563.19
2023-05-16T10:43:26.754Z,-23573.00
2023-05-16T10:45:31.813Z,-23574.25
2023-05-16T10:47:35.107Z,-23570.16
2023-05-16T10:49:42.325Z,-23566.97
2023-05-16T10:51:45.118Z,-23568.41
2023-05-16T10:53:48.347Z,-23569.50
2023-05-16T10:56:11.098Z,-23570.78
2023-05-16T10:58:13.934Z,-23560.66
2023-05-16T11:00:23.717Z,-23555.59
2023-05-16T11:02:30.337Z,-23552.75
2023-05-16T11:04:46.746Z,-23554.34
2023-05-16T11:06:54.726Z,-23550.06
2023-05-16T11:09:06.510Z,-23562.56
2023-05-16T11:11:41.184Z,-23566.34
2023-05-16T11:13:55.988Z,-23564.13
2023-05-16T11:16:28.463Z,-23555.59
2023-05-16T11:18:34.681Z,-23552.13
2023-05-16T11:20:39.493Z,-23551.66
2023-05-16T11:22:42.228Z,-23544.22
2023-05-16T11:24:56.055Z,-23539.78
2023-05-16T11:27:00.928Z,-23532.03
2023-05-16T11:29:04.571Z,-23533.13
2023-05-16T11:31:07.334Z,-23540.72
2023-05-16T11:33:10.150Z,-23536.59
2023-05-16T11:35:16.829Z,-23539.63
2023-05-16T11:37:21.336Z,-23535.66
2023-05-16T11:39:25.519Z,-23536.28
2023-05-16T11:41:28.246Z,-23535.97
2023-05-16T11:43:31.271Z,-23536.94
2023-05-16T11:45:34.400Z,-23536.94
2023-05-16T11:47:39.105Z,-23533.13
2023-05-16T11:49:41.885Z,-23516.34
2023-05-16T11:51:46.826Z,-23523.63
2023-05-16T11:53:50.783Z,-23521.09
2023-05-16T11:55:55.737Z,-23517.78
2023-05-16T11:57:59.570Z,-23526.47
2023-05-16T12:00:07.978Z,-23516.03
2023-05-16T12:02:11.187Z,-23515.72
2023-05-16T12:04:15.507Z,-23523.00
2023-05-16T12:06:18.404Z,-23522.69
2023-05-16T12:08:24.688Z,-23523.94
2023-05-16T12:10:27.828Z,-23519.19
2023-05-16T12:12:31.004Z,-23522.03
2023-05-16T12:14:33.963Z,-23524.72
2023-05-16T12:16:38.092Z,-23522.38
2023-05-16T12:18:43.371Z,-23523.16
2023-05-16T12:20:46.580Z,-23532.19
2023-05-16T12:22:49.333Z,-23532.50
2023-05-16T12:24:53.503Z,-23533.13
2023-05-16T12:26:59.066Z,-23535.34
2023-05-16T12:29:03.517Z,-23529.00
2023-05-16T12:31:27.082Z,-23522.19
2023-05-16T12:33:38.651Z,-23527.28
2023-05-16T12:35:42.656Z,-23526.47
2023-05-16T12:37:45.555Z,-23524.25
2023-05-16T12:39:48.347Z,-23518.09
2023-05-16T12:41:52.376Z,-23520.47
2023-05-16T12:44:07.888Z,-23521.41
2023-05-16T12:46:12.029Z,-23523.94
2023-05-16T12:48:14.968Z,-23532.81
2023-05-16T12:50:18.438Z,-23522.69
2023-05-16T12:52:22.504Z,-23529.16
2023-05-16T12:54:25.496Z,-23523.16
2023-05-16T12:56:28.312Z,-23531.38
2023-05-16T12:58:32.880Z,-23530.13
2023-05-16T13:00:36.521Z,-23529.66
2023-05-16T13:02:39.481Z,-23531.69
2023-05-16T13:04:42.250Z,-23537.41
2023-05-16T13:06:58.706Z,-23538.34
2023-05-16T13:09:02.770Z,-23538.03
2023-05-16T13:11:05.542Z,-23542.63
2023-05-16T13:13:08.218Z,-23536.94
2023-05-16T13:15:13.000Z,-23534.72
2023-05-16T13:17:15.666Z,-23531.53
2023-05-16T13:19:18.520Z,-23534.06
2023-05-16T13:21:22.533Z,-23527.44
2023-05-16T13:23:25.224Z,-23528.06
2023-05-16T13:25:28.223Z,-23523.31
2023-05-16T13:27:31.397Z,-23524.56
2023-05-16T13:29:34.150Z,-23527.75
2023-05-16T13:31:38.358Z,-23527.44
2023-05-16T13:33:41.332Z,-23532.81
2023-05-16T13:35:44.425Z,-23520.16
2023-05-16T13:37:47.175Z,-23529.97
2023-05-16T13:39:49.879Z,-23516.66
2023-05-16T13:41:52.640Z,-23523.47
2023-05-16T13:43:55.453Z,-23524.25
2023-05-16T13:45:58.222Z,-23520.16
2023-05-16T13:48:02.376Z,-23528.84
2023-05-16T13:50:09.154Z,-23533.44
2023-05-16T13:52:11.833Z,-23534.56
2023-05-16T13:54:14.535Z,-23530.28
2023-05-16T13:56:17.258Z,-23537.72
2023-05-16T13:58:19.934Z,-23529.97
2023-05-16T14:02:28.245Z,-23531.53
2023-05-16T14:04:32.362Z,-23533.13
2023-05-16T14:06:35.027Z,-23531.84
2023-05-16T14:08:37.765Z,-23540.41
2023-05-16T14:10:40.488Z,-23534.56
2023-05-16T14:12:43.533Z,-23537.09
2023-05-16T14:14:46.316Z,-23534.72
2023-05-16T14:16:49.162Z,-23532.97
2023-05-16T14:18:51.902Z,-23537.56
2023-05-16T14:20:56.583Z,-23531.84
2023-05-16T14:22:59.245Z,-23525.53
2023-05-16T14:25:01.928Z,-23525.84
2023-05-16T14:27:04.951Z,-23528.84
2023-05-16T14:29:07.693Z,-23524.72
2023-05-16T14:31:10.598Z,-23529.66
2023-05-16T14:33:13.267Z,-23525.06
2023-05-16T14:35:16.176Z,-23529.97
2023-05-16T14:37:20.273Z,-23529.97
2023-05-16T14:39:23.004Z,-23534.38
2023-05-16T14:41:25.686Z,-23530.13
2023-05-16T14:43:28.443Z,-23533.13
2023-05-16T14:45:32.405Z,-23535.34
2023-05-16T14:47:35.183Z,-23528.38
2023-05-16T14:49:37.999Z,-23532.50
2023-05-16T14:51:40.740Z,-23538.50
2023-05-16T14:53:46.904Z,-23527.91
2023-05-16T14:55:50.144Z,-23532.03
2023-05-16T14:57:59.235Z,-23539.16
2023-05-16T15:00:02.735Z,-23529.66
2023-05-16T15:02:06.465Z,-23537.88
2023-05-16T15:04:09.280Z,-23545.16
2023-05-16T15:06:12.053Z,-23537.88
2023-05-16T15:08:14.883Z,-23543.25
2023-05-16T15:10:18.965Z,-23540.25
2023-05-16T15:12:21.705Z,-23535.66
2023-05-16T15:14:25.678Z,-23529.66
2023-05-16T15:16:28.442Z,-23541.34
2023-05-16T15:18:31.208Z,-23542.31
2023-05-16T15:20:34.103Z,-23551.47
2023-05-16T15:22:36.855Z,-23549.91
2023-05-16T15:24:39.579Z,-23554.03
2023-05-16T15:26:43.793Z,-23541.84
2023-05-16T15:28:46.537Z,-23545.16
2023-05-16T15:30:49.221Z,-23548.31
2023-05-16T15:32:51.946Z,-23550.84
2023-05-16T15:34:54.990Z,-23540.72
2023-05-16T15:36:57.772Z,-23543.88
2023-05-16T15:39:00.431Z,-23545.31
2023-05-16T15:41:18.680Z,-23544.22
2023-05-16T15:43:29.844Z,-23542.94
2023-05-16T15:45:32.660Z,-23549.91
2023-05-16T15:47:35.546Z,-23554.03
2023-05-16T15:49:38.530Z,-23552.91
2023-05-16T15:51:41.183Z,-23558.28
2023-05-16T15:53:44.741Z,-23552.91
2023-05-16T15:55:47.892Z,-23559.88
2023-05-16T15:57:50.652Z,-23557.19
2023-05-16T15:59:54.721Z,-23556.53
2023-05-16T16:01:57.366Z,-23556.38
2023-05-16T16:04:00.084Z,-23557.81
2023-05-16T16:06:02.971Z,-23549.44
2023-05-16T16:08:06.043Z,-23546.44
2023-05-16T16:10:09.870Z,-23548.31
2023-05-16T16:12:12.608Z,-23551.00
2023-05-16T16:14:15.324Z,-23540.41
2023-05-16T16:16:19.469Z,-23541.34
2023-05-16T16:18:22.193Z,-23544.53
2023-05-16T16:20:25.024Z,-23545.63
2023-05-16T16:22:27.795Z,-23540.09
2023-05-16T16:24:30.514Z,-23540.41
2023-05-16T16:26:33.227Z,-23540.56
2023-05-16T16:28:35.941Z,-23541.19
2023-05-16T16:30:38.631Z,-23544.22
2023-05-16T16:32:42.838Z,-23545.94
2023-05-16T16:34:45.646Z,-23545.31
2023-05-16T16:36:48.457Z,-23542.47
2023-05-16T16:38:51.153Z,-23536.78
2023-05-16T16:40:53.876Z,-23538.50
2023-05-16T16:42:56.777Z,-23536.44
2023-05-16T16:44:59.464Z,-23539.16
2023-05-16T16:47:02.374Z,-23544.22
2023-05-16T16:49:06.567Z,-23546.44
2023-05-16T16:51:09.349Z,-23546.75
2023-05-16T16:53:11.977Z,-23536.94
2023-05-16T16:55:14.913Z,-23543.88
2023-05-16T16:57:17.745Z,-23539.16
2023-05-16T16:59:20.969Z,-23540.09
2023-05-16T17:01:24.022Z,-23542.63
2023-05-16T17:03:26.901Z,-23542.94
2023-05-16T17:05:31.087Z,-23546.25
2023-05-16T17:07:34.045Z,-23541.34
2023-05-16T17:09:37.100Z,-23546.44
2023-05-16T17:11:40.566Z,-23545.78
2023-05-16T17:13:43.477Z,-23551.66
2023-05-16T17:15:47.870Z,-23552.13
2023-05-16T17:17:51.574Z,-23545.78
2023-05-16T17:19:55.570Z,-23544.38
2023-05-16T17:21:59.616Z,-23545.31
2023-05-16T17:24:02.315Z,-23543.56
2023-05-16T17:26:04.979Z,-23546.25
2023-05-16T17:28:07.854Z,-23542.94
2023-05-16T17:30:11.463Z,-23545.47
2023-05-16T17:32:14.319Z,-23542.63
2023-05-16T17:34:17.283Z,-23543.88
2023-05-16T17:36:20.019Z,-23547.22
2023-05-16T17:38:24.078Z,-23544.22
2023-05-16T17:40:26.764Z,-23541.03
2023-05-16T17:42:29.462Z,-23543.25
2023-05-16T17:44:32.201Z,-23546.09
2023-05-16T17:46:35.220Z,-23551.16
2023-05-16T17:48:38.043Z,-23544.84
2023-05-16T17:50:41.363Z,-23547.06
2023-05-16T17:52:44.681Z,-23551.81
2023-05-16T17:54:48.892Z,-23551.00
2023-05-16T17:56:53.487Z,-23546.44
2023-05-16T17:58:56.423Z,-23547.06
2023-05-16T18:00:59.176Z,-23550.06
2023-05-16T18:03:02.077Z,-23547.53
2023-05-16T18:07:08.212Z,-23545.16
2023-05-16T18:09:11.634Z,-23545.78
2023-05-16T18:11:15.698Z,-23548.63
2023-05-16T18:13:18.712Z,-23548.31
2023-05-16T18:15:22.466Z,-23544.22
2023-05-16T18:17:25.180Z,-23546.75
2023-05-16T18:19:27.978Z,-23543.56
2023-05-16T18:21:30.907Z,-23545.78
2023-05-16T18:23:34.821Z,-23541.34
2023-05-16T18:25:37.586Z,-23539.47
2023-05-16T18:27:41.919Z,-23540.72
2023-05-16T18:29:44.605Z,-23535.34
2023-05-16T18:31:47.348Z,-23534.22
2023-05-16T18:33:50.318Z,-23537.88
2023-05-16T18:35:53.005Z,-23539.78
2023-05-16T18:37:55.783Z,-23537.56
2023-05-16T18:39:58.556Z,-23537.56
2023-05-16T18:42:01.318Z,-23534.06
2023-05-16T18:44:05.992Z,-23537.88
2023-05-16T18:46:08.691Z,-23533.75
2023-05-16T18:48:11.622Z,-23528.22
2023-05-16T18:50:14.586Z,-23530.91
2023-05-16T18:52:17.723Z,-23528.84
2023-05-16T18:54:22.595Z,-23527.13
2023-05-16T18:56:26.760Z,-23524.41
2023-05-16T18:58:29.457Z,-23525.22
2023-05-16T19:00:34.285Z,-23528.22
2023-05-16T19:02:42.119Z,-23523.47
2023-05-16T19:04:46.219Z,-23524.56
2023-05-16T19:06:49.539Z,-23523.16
2023-05-16T19:08:52.418Z,-23518.88
2023-05-16T19:10:55.312Z,-23517.63
2023-05-16T19:13:01.409Z,-23517.63
2023-05-16T19:15:04.324Z,-23520.31
2023-05-16T19:17:08.534Z,-23515.41
2023-05-16T19:19:11.331Z,-23512.84
2023-05-16T19:21:15.671Z,-23517.78
2023-05-16T19:23:18.454Z,-23517.94
2023-05-16T19:25:21.135Z,-23514.28
2023-05-16T19:27:23.877Z,-23515.06
2023-05-16T19:29:26.803Z,-23518.88
2023-05-16T19:31:29.759Z,-23514.75
2023-05-16T19:33:33.945Z,-23515.72
2023-05-16T19:35:38.428Z,-23516.97
2023-05-16T19:37:41.194Z,-23517.78
2023-05-16T19:39:43.933Z,-23514.13
2023-05-16T19:41:51.705Z,-23509.06
2023-05-16T19:43:55.136Z,-23509.22
2023-05-16T19:45:58.004Z,-23512.22
2023-05-16T19:48:00.834Z,-23508.44
2023-05-16T19:50:05.564Z,-23507.94
2023-05-16T19:52:09.234Z,-23503.69
2023-05-16T19:54:11.962Z,-23505.56
2023-05-16T19:56:14.897Z,-23504.78
2023-05-16T19:58:18.033Z,-23501.28
2023-05-16T20:00:21.275Z,-23505.41
2023-05-16T20:02:24.737Z,-23502.09
2023-05-16T20:04:28.152Z,-23500.81
2023-05-16T20:06:32.579Z,-23499.88
2023-05-16T20:08:35.483Z,-23498.59
2023-05-16T20:10:38.199Z,-23497.97
2023-05-16T20:12:40.930Z,-23498.94
2023-05-16T20:14:43.575Z,-23497.34
2023-05-16T20:16:46.292Z,-23495.44
2023-05-16T20:18:49.037Z,-23496.38
2023-05-16T20:20:51.878Z,-23499.56
2023-05-16T20:22:55.932Z,-23494.31
2023-05-16T20:24:58.639Z,-23492.91
2023-05-16T20:27:01.484Z,-23491.16
2023-05-16T20:29:04.765Z,-23495.91
2023-05-16T20:31:07.488Z,-23492.91
2023-05-16T20:33:10.325Z,-23496.72
2023-05-16T20:35:14.823Z,-23495.13
2023-05-16T20:39:21.883Z,-23493.38
2023-05-16T20:41:24.618Z,-23492.59
2023-05-16T20:43:27.331Z,-23491.63
2023-05-16T20:45:31.084Z,-23491.31
2023-05-16T20:47:33.760Z,-23494.00
2023-05-16T20:49:37.720Z,-23491.00
2023-05-16T20:51:40.401Z,-23493.69
2023-05-16T20:53:43.018Z,-23491.47
2023-05-16T20:55:47.092Z,-23489.41
2023-05-16T20:57:49.802Z,-23488.16
2023-05-16T20:59:52.484Z,-23492.25
2023-05-16T21:01:55.224Z,-23487.03
2023-05-16T21:03:58.108Z,-23484.19
2023-05-16T21:06:00.833Z,-23485.28
2023-05-16T21:08:03.627Z,-23490.69
2023-05-16T21:10:07.298Z,-23487.84
2023-05-16T21:12:11.646Z,-23486.88
2023-05-16T21:14:14.559Z,-23489.09
2023-05-16T21:16:17.310Z,-23485.28
2023-05-16T21:18:20.093Z,-23487.03
2023-05-16T21:20:25.519Z,-23485.91
2023-05-16T21:22:28.237Z,-23486.56
2023-05-16T21:24:34.973Z,-23485.28
2023-05-16T21:26:37.493Z,-23490.38
2023-05-16T21:28:53.959Z,-23488.47
2023-05-16T21:30:58.033Z,-23486.25
2023-05-16T21:33:00.884Z,-23486.25
2023-05-16T21:35:04.716Z,-23484.03
2023-05-16T21:37:08.492Z,-23484.19
2023-05-16T21:39:11.253Z,-23483.38
2023-05-16T21:41:14.581Z,-23486.09
2023-05-16T21:43:17.485Z,-23483.06
2023-05-16T21:45:21.581Z,-23475.94
2023-05-16T21:47:24.567Z,-23481.97
2023-05-16T21:49:27.340Z,-23476.41
2023-05-16T21:51:30.684Z,-23478.63
2023-05-16T21:53:34.418Z,-23474.81
2023-05-16T21:55:37.261Z,-23475.78
2023-05-16T21:57:39.928Z,-23471.19
2023-05-16T21:59:42.641Z,-23471.03
2023-05-16T22:01:46.698Z,-23466.44
2023-05-16T22:03:49.417Z,-23464.38
2023-05-16T22:05:52.268Z,-23465.94
2023-05-16T22:07:55.144Z,-23466.09
2023-05-16T22:09:58.481Z,-23462.78
2023-05-16T22:12:01.155Z,-23461.81
2023-05-16T22:14:04.006Z,-23461.19
2023-05-16T22:16:07.582Z,-23461.81
2023-05-16T22:18:11.867Z,-23461.50
2023-05-16T22:20:14.929Z,-23457.06
2023-05-16T22:22:17.903Z,-23458.50
2023-05-16T22:24:20.605Z,-23458.81
2023-05-16T22:26:23.706Z,-23458.03
2023-05-16T22:28:26.439Z,-23458.03
2023-05-16T22:30:29.271Z,-23456.75
2023-05-16T22:32:32.057Z,-23454.69
2023-05-16T22:34:39.353Z,-23456.75
2023-05-16T22:36:42.499Z,-23451.84
2023-05-16T22:38:45.199Z,-23448.97
2023-05-16T22:40:47.885Z,-23451.34
2023-05-16T22:42:50.558Z,-23448.81
2023-05-16T22:44:53.209Z,-23446.91
2023-05-16T22:46:56.030Z,-23445.66
2023-05-16T22:48:58.774Z,-23448.19
2023-05-16T22:51:03.413Z,-23446.44
2023-05-16T22:53:06.236Z,-23444.38
2023-05-16T22:55:09.674Z,-23446.28
2023-05-16T22:57:12.357Z,-23443.09
2023-05-16T22:59:15.113Z,-23441.34
2023-05-16T23:01:17.902Z,-23442.78
2023-05-16T23:03:20.675Z,-23441.19
2023-05-16T23:05:23.574Z,-23439.59
2023-05-16T23:07:28.850Z,-23437.72
2023-05-16T23:09:31.691Z,-23437.72
2023-05-16T23:11:34.421Z,-23439.47
2023-05-16T23:13:37.154Z,-23429.44
2023-05-16T23:15:40.053Z,-23434.84
2023-05-16T23:17:42.780Z,-23426.59
2023-05-16T23:19:45.598Z,-23430.25
2023-05-16T23:21:48.409Z,-23429.78
2023-05-16T23:23:52.486Z,-23431.34
2023-05-16T23:25:55.182Z,-23432.47
2023-05-16T23:27:58.079Z,-23432.16
2023-05-16T23:30:01.015Z,-23430.56
2023-05-16T23:32:03.924Z,-23426.28
2023-05-16T23:34:08.012Z,-23427.84
2023-05-16T23:36:10.814Z,-23428.19
2023-05-16T23:38:13.617Z,-23427.22
2023-05-16T23:40:17.683Z,-23429.78